sensor_id;sensor_type;location;lat;lon;timestamp;pressure;altitude;pressure_sealevel;temperature;humidity
38400;BME280;24180;42.676;23.320;2023-05-11T00:01:47;94943.38;;;10.01;100.00
38400;BME280;24180;42.676;23.320;2023-05-11T00:04:13;94935.59;;;9.91;100.00
38400;BME280;24180;42.676;23.320;2023-05-11T00:06:39;94950.88;;;9.94;100.00
38400;BME280;24180;42.676;23.320;2023-05-11T00:09:04;94926.22;;;9.80;100.00
38400;BME280;24180;42.676;23.320;2023-05-11T00:11:30;94940.53;;;9.94;100.00
38400;BME280;24180;42.676;23.320;2023-05-11T00:13:55;94921.97;;;9.79;100.00
38400;BME280;24180;42.676;23.320;2023-05-11T00:16:21;94926.47;;;9.77;100.00
38400;BME280;24180;42.676;23.320;2023-05-11T00:18:46;94921.44;;;9.76;100.00
38400;BME280;24180;42.676;23.320;2023-05-11T00:21:13;94945.28;;;9.89;100.00
38400;BME280;24180;42.676;23.320;2023-05-11T00:23:38;94939.97;;;9.81;100.00
38400;BME280;24180;42.676;23.320;2023-05-11T00:26:04;94931.78;;;9.76;100.00
38400;BME280;24180;42.676;23.320;2023-05-11T00:28:29;94949.75;;;9.87;100.00
38400;BME280;24180;42.676;23.320;2023-05-11T00:30:55;94951.13;;;9.91;100.00
38400;BME280;24180;42.676;23.320;2023-05-11T00:33:21;94954.41;;;9.93;100.00
38400;BME280;24180;42.676;23.320;2023-05-11T00:35:47;94917.22;;;9.65;100.00
38400;BME280;24180;42.676;23.320;2023-05-11T00:38:13;94957.28;;;9.90;100.00
38400;BME280;24180;42.676;23.320;2023-05-11T00:40:39;94951.53;;;9.96;100.00
38400;BME280;24180;42.676;23.320;2023-05-11T00:43:04;94943.66;;;9.78;100.00
38400;BME280;24180;42.676;23.320;2023-05-11T00:45:30;94928.22;;;9.67;100.00
38400;BME280;24180;42.676;23.320;2023-05-11T00:47:55;94942.94;;;9.76;100.00
38400;BME280;24180;42.676;23.320;2023-05-11T00:50:28;94948.41;;;9.73;100.00
38400;BME280;24180;42.676;23.320;2023-05-11T00:52:54;94958.72;;;9.83;100.00
38400;BME280;24180;42.676;23.320;2023-05-11T00:55:20;94962.53;;;9.79;100.00
38400;BME280;24180;42.676;23.320;2023-05-11T00:57:46;94917.19;;;9.46;100.00
38400;BME280;24180;42.676;23.320;2023-05-11T01:00:12;94961.19;;;9.84;100.00
38400;BME280;24180;42.676;23.320;2023-05-11T01:02:38;94959.56;;;9.83;100.00
38400;BME280;24180;42.676;23.320;2023-05-11T01:05:05;94966.09;;;9.78;100.00
38400;BME280;24180;42.676;23.320;2023-05-11T01:15:47;94959.16;;;9.78;100.00
38400;BME280;24180;42.676;23.320;2023-05-11T01:18:29;94958.47;;;9.76;100.00
38400;BME280;24180;42.676;23.320;2023-05-11T01:21:01;94928.75;;;9.52;100.00
38400;BME280;24180;42.676;23.320;2023-05-11T01:23:54;94969.19;;;9.72;100.00
38400;BME280;24180;42.676;23.320;2023-05-11T01:26:34;94967.56;;;9.71;100.00
38400;BME280;24180;42.676;23.320;2023-05-11T01:31:53;94965.91;;;9.60;100.00
38400;BME280;24180;42.676;23.320;2023-05-11T01:34:24;94959.09;;;9.50;100.00
38400;BME280;24180;42.676;23.320;2023-05-11T01:39:29;94955.72;;;9.59;100.00
38400;BME280;24180;42.676;23.320;2023-05-11T01:41:57;94947.66;;;9.43;100.00
38400;BME280;24180;42.676;23.320;2023-05-11T01:44:29;94961.69;;;9.50;100.00
38400;BME280;24180;42.676;23.320;2023-05-11T01:46:59;94966.56;;;9.53;100.00
38400;BME280;24180;42.676;23.320;2023-05-11T01:49:28;94935.13;;;9.38;100.00
38400;BME280;24180;42.676;23.320;2023-05-11T01:51:57;94942.06;;;9.37;100.00
38400;BME280;24180;42.676;23.320;2023-05-11T01:54:24;94938.22;;;9.32;100.00
38400;BME280;24180;42.676;23.320;2023-05-11T01:56:52;94962.47;;;9.40;100.00
38400;BME280;24180;42.676;23.320;2023-05-11T01:59:18;94971.47;;;9.46;100.00
38400;BME280;24180;42.676;23.320;2023-05-11T02:01:44;94944.59;;;9.28;100.00
38400;BME280;24180;42.676;23.320;2023-05-11T02:04:10;94960.81;;;9.39;100.00
38400;BME280;24180;42.676;23.320;2023-05-11T02:06:38;94970.91;;;9.43;100.00
38400;BME280;24180;42.676;23.320;2023-05-11T02:09:06;94939.97;;;9.31;100.00
38400;BME280;24180;42.676;23.320;2023-05-11T02:11:33;94958.00;;;9.43;100.00
38400;BME280;24180;42.676;23.320;2023-05-11T02:14:00;94971.19;;;9.49;100.00
38400;BME280;24180;42.676;23.320;2023-05-11T02:16:28;94931.69;;;9.28;100.00
38400;BME280;24180;42.676;23.320;2023-05-11T02:18:57;94949.81;;;9.37;100.00
38400;BME280;24180;42.676;23.320;2023-05-11T02:21:25;94943.94;;;9.35;100.00
38400;BME280;24180;42.676;23.320;2023-05-11T02:23:51;94951.00;;;9.33;100.00
38400;BME280;24180;42.676;23.320;2023-05-11T02:26:17;94957.94;;;9.33;100.00
38400;BME280;24180;42.676;23.320;2023-05-11T02:28:43;94961.78;;;9.38;100.00
38400;BME280;24180;42.676;23.320;2023-05-11T02:31:20;94958.63;;;9.35;100.00
38400;BME280;24180;42.676;23.320;2023-05-11T02:33:49;94961.34;;;9.33;100.00
38400;BME280;24180;42.676;23.320;2023-05-11T02:36:22;94927.00;;;9.12;100.00
38400;BME280;24180;42.676;23.320;2023-05-11T02:38:54;94932.16;;;9.12;100.00
38400;BME280;24180;42.676;23.320;2023-05-11T02:41:25;94947.72;;;9.22;100.00
38400;BME280;24180;42.676;23.320;2023-05-11T02:43:53;94959.19;;;9.38;100.00
38400;BME280;24180;42.676;23.320;2023-05-11T02:46:23;94952.38;;;9.37;100.00
38400;BME280;24180;42.676;23.320;2023-05-11T02:48:52;94956.19;;;9.33;100.00
38400;BME280;24180;42.676;23.320;2023-05-11T02:51:25;94963.00;;;9.34;100.00
38400;BME280;24180;42.676;23.320;2023-05-11T02:53:55;94957.38;;;9.29;100.00
38400;BME280;24180;42.676;23.320;2023-05-11T02:56:23;94957.81;;;9.34;100.00
38400;BME280;24180;42.676;23.320;2023-05-11T02:58:48;94949.91;;;9.26;100.00
38400;BME280;24180;42.676;23.320;2023-05-11T03:01:14;94924.13;;;9.06;100.00
38400;BME280;24180;42.676;23.320;2023-05-11T03:03:40;94950.59;;;9.28;100.00
38400;BME280;24180;42.676;23.320;2023-05-11T03:06:06;94936.56;;;9.21;100.00
38400;BME280;24180;42.676;23.320;2023-05-11T03:08:31;94944.75;;;9.26;100.00
38400;BME280;24180;42.676;23.320;2023-05-11T03:10:57;94957.81;;;9.34;100.00
38400;BME280;24180;42.676;23.320;2023-05-11T03:13:24;94890.50;;;8.86;100.00
38400;BME280;24180;42.676;23.320;2023-05-11T03:15:51;94961.31;;;9.24;100.00
38400;BME280;24180;42.676;23.320;2023-05-11T03:18:17;94959.97;;;9.29;100.00
38400;BME280;24180;42.676;23.320;2023-05-11T03:20:44;94935.97;;;9.08;100.00
38400;BME280;24180;42.676;23.320;2023-05-11T03:23:11;94932.00;;;9.04;100.00
38400;BME280;24180;42.676;23.320;2023-05-11T03:25:37;94938.16;;;9.13;100.00
38400;BME280;24180;42.676;23.320;2023-05-11T03:28:03;94964.28;;;9.19;100.00
38400;BME280;24180;42.676;23.320;2023-05-11T03:30:30;94963.34;;;9.20;100.00
38400;BME280;24180;42.676;23.320;2023-05-11T03:32:57;94964.72;;;9.24;100.00
38400;BME280;24180;42.676;23.320;2023-05-11T03:35:24;94967.28;;;9.24;100.00
38400;BME280;24180;42.676;23.320;2023-05-11T03:37:51;94939.63;;;9.06;100.00
38400;BME280;24180;42.676;23.320;2023-05-11T03:40:20;94944.91;;;9.04;100.00
38400;BME280;24180;42.676;23.320;2023-05-11T03:42:47;94938.53;;;9.08;100.00
38400;BME280;24180;42.676;23.320;2023-05-11T03:45:16;94965.97;;;9.30;100.00
38400;BME280;24180;42.676;23.320;2023-05-11T03:47:43;94959.25;;;9.18;100.00
38400;BME280;24180;42.676;23.320;2023-05-11T03:50:11;94974.28;;;9.33;100.00
38400;BME280;24180;42.676;23.320;2023-05-11T03:52:37;94960.63;;;9.22;100.00
38400;BME280;24180;42.676;23.320;2023-05-11T03:55:03;94947.41;;;9.15;100.00
38400;BME280;24180;42.676;23.320;2023-05-11T03:57:29;94970.25;;;9.20;100.00
38400;BME280;24180;42.676;23.320;2023-05-11T03:59:54;94932.25;;;9.01;100.00
38400;BME280;24180;42.676;23.320;2023-05-11T04:02:20;94974.09;;;9.25;100.00
38400;BME280;24180;42.676;23.320;2023-05-11T04:04:48;94965.06;;;9.10;100.00
38400;BME280;24180;42.676;23.320;2023-05-11T04:07:14;94972.41;;;9.15;100.00
38400;BME280;24180;42.676;23.320;2023-05-11T04:09:39;94967.66;;;9.10;100.00
38400;BME280;24180;42.676;23.320;2023-05-11T04:12:05;94980.59;;;9.20;100.00
38400;BME280;24180;42.676;23.320;2023-05-11T04:14:30;94958.91;;;9.02;100.00
38400;BME280;24180;42.676;23.320;2023-05-11T04:16:56;94957.38;;;8.99;100.00
38400;BME280;24180;42.676;23.320;2023-05-11T04:19:21;94984.22;;;9.08;100.00
38400;BME280;24180;42.676;23.320;2023-05-11T04:21:47;94971.34;;;9.17;100.00
38400;BME280;24180;42.676;23.320;2023-05-11T04:24:12;94985.38;;;9.24;100.00
38400;BME280;24180;42.676;23.320;2023-05-11T04:26:37;94965.91;;;9.20;100.00
38400;BME280;24180;42.676;23.320;2023-05-11T04:29:03;94959.91;;;9.10;100.00
38400;BME280;24180;42.676;23.320;2023-05-11T04:31:29;94988.53;;;9.28;100.00
38400;BME280;24180;42.676;23.320;2023-05-11T04:33:54;94964.28;;;9.19;100.00
38400;BME280;24180;42.676;23.320;2023-05-11T04:36:20;94963.72;;;9.16;100.00
38400;BME280;24180;42.676;23.320;2023-05-11T04:38:46;94967.25;;;9.15;100.00
38400;BME280;24180;42.676;23.320;2023-05-11T04:41:12;94988.13;;;9.32;100.00
38400;BME280;24180;42.676;23.320;2023-05-11T04:43:39;94997.25;;;9.36;100.00
38400;BME280;24180;42.676;23.320;2023-05-11T04:46:04;94989.63;;;9.35;100.00
38400;BME280;24180;42.676;23.320;2023-05-11T04:48:29;94971.63;;;9.14;100.00
38400;BME280;24180;42.676;23.320;2023-05-11T04:50:55;94965.47;;;9.15;100.00
38400;BME280;24180;42.676;23.320;2023-05-11T04:53:21;94998.91;;;9.37;100.00
38400;BME280;24180;42.676;23.320;2023-05-11T04:55:47;94990.44;;;9.35;100.00
38400;BME280;24180;42.676;23.320;2023-05-11T04:58:12;94969.06;;;9.24;100.00
38400;BME280;24180;42.676;23.320;2023-05-11T05:00:38;95007.66;;;9.46;100.00
38400;BME280;24180;42.676;23.320;2023-05-11T05:03:03;94990.75;;;9.42;100.00
38400;BME280;24180;42.676;23.320;2023-05-11T05:05:28;94995.13;;;9.42;100.00
38400;BME280;24180;42.676;23.320;2023-05-11T05:07:54;95003.31;;;9.47;100.00
38400;BME280;24180;42.676;23.320;2023-05-11T05:10:20;95010.94;;;9.58;100.00
38400;BME280;24180;42.676;23.320;2023-05-11T05:12:46;95009.84;;;9.51;100.00
38400;BME280;24180;42.676;23.320;2023-05-11T05:15:12;95017.22;;;9.65;100.00
38400;BME280;24180;42.676;23.320;2023-05-11T05:17:38;95024.31;;;9.72;100.00
38400;BME280;24180;42.676;23.320;2023-05-11T05:20:04;95016.06;;;9.78;100.00
38400;BME280;24180;42.676;23.320;2023-05-11T05:22:30;94993.28;;;9.72;100.00
38400;BME280;24180;42.676;23.320;2023-05-11T05:24:56;95029.84;;;9.98;100.00
38400;BME280;24180;42.676;23.320;2023-05-11T05:27:21;95001.63;;;9.95;100.00
38400;BME280;24180;42.676;23.320;2023-05-11T05:29:47;95023.56;;;10.01;100.00
38400;BME280;24180;42.676;23.320;2023-05-11T05:32:12;94993.34;;;9.92;100.00
38400;BME280;24180;42.676;23.320;2023-05-11T05:34:38;95019.06;;;9.93;100.00
38400;BME280;24180;42.676;23.320;2023-05-11T05:37:03;95003.38;;;9.75;100.00
38400;BME280;24180;42.676;23.320;2023-05-11T05:39:28;95032.19;;;10.11;100.00
38400;BME280;24180;42.676;23.320;2023-05-11T05:41:54;94998.09;;;9.96;100.00
38400;BME280;24180;42.676;23.320;2023-05-11T05:44:19;95031.78;;;10.15;100.00
38400;BME280;24180;42.676;23.320;2023-05-11T05:46:45;95036.56;;;10.20;100.00
38400;BME280;24180;42.676;23.320;2023-05-11T05:49:10;95011.16;;;9.85;100.00
38400;BME280;24180;42.676;23.320;2023-05-11T05:51:36;95031.88;;;9.95;100.00
38400;BME280;24180;42.676;23.320;2023-05-11T05:54:01;95021.69;;;10.03;100.00
38400;BME280;24180;42.676;23.320;2023-05-11T05:56:27;95036.25;;;10.04;100.00
38400;BME280;24180;42.676;23.320;2023-05-11T05:58:52;95039.75;;;9.93;100.00
38400;BME280;24180;42.676;23.320;2023-05-11T06:01:17;95014.44;;;9.97;100.00
38400;BME280;24180;42.676;23.320;2023-05-11T06:03:43;95016.91;;;10.08;100.00
38400;BME280;24180;42.676;23.320;2023-05-11T06:06:11;94997.03;;;10.08;100.00
38400;BME280;24180;42.676;23.320;2023-05-11T06:08:37;95032.91;;;10.32;100.00
38400;BME280;24180;42.676;23.320;2023-05-11T06:11:02;95021.44;;;10.15;100.00
38400;BME280;24180;42.676;23.320;2023-05-11T06:13:27;95000.56;;;9.98;100.00
38400;BME280;24180;42.676;23.320;2023-05-11T06:15:53;95035.91;;;10.27;100.00
38400;BME280;24180;42.676;23.320;2023-05-11T06:18:18;95046.56;;;10.53;100.00
38400;BME280;24180;42.676;23.320;2023-05-11T06:20:44;95052.69;;;10.52;100.00
38400;BME280;24180;42.676;23.320;2023-05-11T06:23:09;95037.25;;;10.31;100.00
38400;BME280;24180;42.676;23.320;2023-05-11T06:25:34;95030.34;;;10.42;100.00
38400;BME280;24180;42.676;23.320;2023-05-11T06:28:00;95063.72;;;10.54;100.00
38400;BME280;24180;42.676;23.320;2023-05-11T06:30:26;95061.13;;;10.45;100.00
38400;BME280;24180;42.676;23.320;2023-05-11T06:32:51;95063.06;;;10.43;100.00
38400;BME280;24180;42.676;23.320;2023-05-11T06:35:17;95061.00;;;10.46;100.00
38400;BME280;24180;42.676;23.320;2023-05-11T06:37:42;95053.38;;;10.54;100.00
38400;BME280;24180;42.676;23.320;2023-05-11T06:40:08;95044.63;;;10.55;100.00
38400;BME280;24180;42.676;23.320;2023-05-11T06:42:34;95052.00;;;10.41;100.00
38400;BME280;24180;42.676;23.320;2023-05-11T06:44:59;95066.44;;;10.33;100.00
38400;BME280;24180;42.676;23.320;2023-05-11T06:47:25;95073.78;;;10.48;100.00
38400;BME280;24180;42.676;23.320;2023-05-11T06:49:50;95062.88;;;10.44;100.00
38400;BME280;24180;42.676;23.320;2023-05-11T06:52:16;95046.53;;;10.44;100.00
38400;BME280;24180;42.676;23.320;2023-05-11T06:54:41;95073.25;;;10.63;100.00
38400;BME280;24180;42.676;23.320;2023-05-11T06:57:07;95057.97;;;10.79;100.00
38400;BME280;24180;42.676;23.320;2023-05-11T06:59:32;95047.34;;;10.92;100.00
38400;BME280;24180;42.676;23.320;2023-05-11T07:01:58;95050.59;;;11.13;100.00
38400;BME280;24180;42.676;23.320;2023-05-11T07:04:23;95071.44;;;11.68;100.00
38400;BME280;24180;42.676;23.320;2023-05-11T07:06:49;95061.88;;;11.78;100.00
38400;BME280;24180;42.676;23.320;2023-05-11T07:09:14;95049.63;;;11.61;100.00
38400;BME280;24180;42.676;23.320;2023-05-11T07:11:40;95054.69;;;11.99;100.00
38400;BME280;24180;42.676;23.320;2023-05-11T07:14:06;95041.00;;;12.07;100.00
38400;BME280;24180;42.676;23.320;2023-05-11T07:16:33;95063.75;;;12.58;100.00
38400;BME280;24180;42.676;23.320;2023-05-11T07:19:02;95066.41;;;12.66;100.00
38400;BME280;24180;42.676;23.320;2023-05-11T07:21:28;95044.16;;;12.46;100.00
38400;BME280;24180;42.676;23.320;2023-05-11T07:23:53;95064.09;;;12.81;100.00
38400;BME280;24180;42.676;23.320;2023-05-11T07:26:19;95057.44;;;12.60;100.00
38400;BME280;24180;42.676;23.320;2023-05-11T07:28:46;95073.22;;;13.02;100.00
38400;BME280;24180;42.676;23.320;2023-05-11T07:31:11;95064.47;;;13.21;100.00
38400;BME280;24180;42.676;23.320;2023-05-11T07:33:37;95068.06;;;13.28;100.00
38400;BME280;24180;42.676;23.320;2023-05-11T07:36:03;95060.38;;;13.19;100.00
38400;BME280;24180;42.676;23.320;2023-05-11T07:38:29;95062.53;;;13.23;100.00
38400;BME280;24180;42.676;23.320;2023-05-11T07:40:54;95053.84;;;13.66;100.00
38400;BME280;24180;42.676;23.320;2023-05-11T07:43:20;95045.13;;;13.75;100.00
38400;BME280;24180;42.676;23.320;2023-05-11T07:45:45;95054.31;;;13.95;100.00
38400;BME280;24180;42.676;23.320;2023-05-11T07:48:10;95081.41;;;14.11;100.00
38400;BME280;24180;42.676;23.320;2023-05-11T07:50:36;95054.50;;;14.02;100.00
38400;BME280;24180;42.676;23.320;2023-05-11T07:53:02;95063.28;;;13.67;100.00
38400;BME280;24180;42.676;23.320;2023-05-11T07:55:27;95072.59;;;14.03;100.00
38400;BME280;24180;42.676;23.320;2023-05-11T07:57:54;95066.19;;;13.98;100.00
38400;BME280;24180;42.676;23.320;2023-05-11T08:00:20;95059.00;;;14.34;100.00
38400;BME280;24180;42.676;23.320;2023-05-11T08:02:46;95075.41;;;14.26;100.00
38400;BME280;24180;42.676;23.320;2023-05-11T08:05:11;95058.34;;;14.24;100.00
38400;BME280;24180;42.676;23.320;2023-05-11T08:07:36;95080.06;;;14.48;100.00
38400;BME280;24180;42.676;23.320;2023-05-11T08:10:02;95082.53;;;14.50;100.00
38400;BME280;24180;42.676;23.320;2023-05-11T08:12:28;95055.13;;;14.38;100.00
38400;BME280;24180;42.676;23.320;2023-05-11T08:14:53;95070.53;;;14.89;100.00
38400;BME280;24180;42.676;23.320;2023-05-11T08:17:19;95051.16;;;15.00;100.00
38400;BME280;24180;42.676;23.320;2023-05-11T08:19:44;95062.22;;;15.02;100.00
38400;BME280;24180;42.676;23.320;2023-05-11T08:22:10;95067.91;;;14.81;100.00
38400;BME280;24180;42.676;23.320;2023-05-11T08:24:35;95069.72;;;14.97;100.00
38400;BME280;24180;42.676;23.320;2023-05-11T08:27:01;95042.16;;;15.27;100.00
38400;BME280;24180;42.676;23.320;2023-05-11T08:29:27;95067.41;;;15.67;100.00
38400;BME280;24180;42.676;23.320;2023-05-11T08:31:52;95058.13;;;15.40;100.00
38400;BME280;24180;42.676;23.320;2023-05-11T08:34:18;95056.03;;;15.03;100.00
38400;BME280;24180;42.676;23.320;2023-05-11T08:36:43;95075.59;;;14.99;100.00
38400;BME280;24180;42.676;23.320;2023-05-11T08:39:09;95050.63;;;15.05;100.00
38400;BME280;24180;42.676;23.320;2023-05-11T08:41:34;95064.19;;;15.24;100.00
38400;BME280;24180;42.676;23.320;2023-05-11T08:44:00;95029.13;;;14.62;100.00
38400;BME280;24180;42.676;23.320;2023-05-11T08:46:29;95067.28;;;15.28;100.00
38400;BME280;24180;42.676;23.320;2023-05-11T08:48:55;95050.16;;;15.25;100.00
38400;BME280;24180;42.676;23.320;2023-05-11T08:51:24;95061.41;;;15.26;100.00
38400;BME280;24180;42.676;23.320;2023-05-11T08:53:50;95060.56;;;15.25;99.55
38400;BME280;24180;42.676;23.320;2023-05-11T08:56:18;95049.00;;;15.44;100.00
38400;BME280;24180;42.676;23.320;2023-05-11T08:58:46;95059.19;;;15.86;96.66
38400;BME280;24180;42.676;23.320;2023-05-11T09:01:12;95063.53;;;16.02;96.89
38400;BME280;24180;42.676;23.320;2023-05-11T09:03:39;95061.59;;;16.04;95.49
38400;BME280;24180;42.676;23.320;2023-05-11T09:06:06;95051.69;;;16.22;96.38
38400;BME280;24180;42.676;23.320;2023-05-11T09:08:33;95022.88;;;15.68;96.28
38400;BME280;24180;42.676;23.320;2023-05-11T09:11:03;95036.09;;;15.42;100.00
38400;BME280;24180;42.676;23.320;2023-05-11T09:13:29;95035.63;;;15.55;100.00
38400;BME280;24180;42.676;23.320;2023-05-11T09:15:56;95059.19;;;16.25;99.73
38400;BME280;24180;42.676;23.320;2023-05-11T09:18:21;95044.13;;;16.35;99.26
38400;BME280;24180;42.676;23.320;2023-05-11T09:20:48;95043.56;;;16.48;98.71
38400;BME280;24180;42.676;23.320;2023-05-11T09:23:15;95048.00;;;16.47;98.88
38400;BME280;24180;42.676;23.320;2023-05-11T09:25:41;95055.81;;;16.47;96.47
38400;BME280;24180;42.676;23.320;2023-05-11T09:28:10;95036.88;;;15.75;100.00
38400;BME280;24180;42.676;23.320;2023-05-11T09:30:36;95055.44;;;15.88;100.00
38400;BME280;24180;42.676;23.320;2023-05-11T09:33:01;95054.84;;;15.70;100.00
38400;BME280;24180;42.676;23.320;2023-05-11T09:35:32;95056.16;;;15.58;100.00
38400;BME280;24180;42.676;23.320;2023-05-11T09:38:00;95044.44;;;15.54;100.00
38400;BME280;24180;42.676;23.320;2023-05-11T09:40:27;95040.50;;;15.58;100.00
38400;BME280;24180;42.676;23.320;2023-05-11T09:42:53;95065.38;;;16.32;100.00
38400;BME280;24180;42.676;23.320;2023-05-11T09:45:41;95065.94;;;16.50;99.28
38400;BME280;24180;42.676;23.320;2023-05-11T09:48:30;95054.44;;;15.89;100.00
38400;BME280;24180;42.676;23.320;2023-05-11T09:51:04;95055.50;;;15.72;100.00
38400;BME280;24180;42.676;23.320;2023-05-11T09:53:41;95048.06;;;16.00;100.00
38400;BME280;24180;42.676;23.320;2023-05-11T09:56:08;95040.66;;;16.12;100.00
38400;BME280;24180;42.676;23.320;2023-05-11T09:58:50;95031.47;;;16.77;99.95
38400;BME280;24180;42.676;23.320;2023-05-11T10:01:18;95049.25;;;17.27;97.11
38400;BME280;24180;42.676;23.320;2023-05-11T10:03:52;95027.09;;;17.15;95.17
38400;BME280;24180;42.676;23.320;2023-05-11T10:06:18;95029.94;;;17.06;97.17
38400;BME280;24180;42.676;23.320;2023-05-11T10:08:44;95028.19;;;17.21;95.05
38400;BME280;24180;42.676;23.320;2023-05-11T10:11:10;95033.97;;;17.31;94.38
38400;BME280;24180;42.676;23.320;2023-05-11T10:13:35;95016.75;;;16.99;94.51
38400;BME280;24180;42.676;23.320;2023-05-11T10:16:05;95023.38;;;17.10;95.58
38400;BME280;24180;42.676;23.320;2023-05-11T10:18:32;95005.47;;;16.99;97.75
38400;BME280;24180;42.676;23.320;2023-05-11T10:20:58;95031.16;;;17.70;93.77
38400;BME280;24180;42.676;23.320;2023-05-11T10:23:27;95014.31;;;17.35;91.52
38400;BME280;24180;42.676;23.320;2023-05-11T10:25:53;95020.25;;;17.66;91.26
38400;BME280;24180;42.676;23.320;2023-05-11T10:28:18;94994.88;;;17.96;89.15
38400;BME280;24180;42.676;23.320;2023-05-11T10:30:46;95006.81;;;18.70;83.27
38400;BME280;24180;42.676;23.320;2023-05-11T10:33:12;95026.16;;;18.91;81.77
38400;BME280;24180;42.676;23.320;2023-05-11T10:35:38;95010.41;;;19.33;79.42
38400;BME280;24180;42.676;23.320;2023-05-11T10:38:05;94992.41;;;19.99;73.34
38400;BME280;24180;42.676;23.320;2023-05-11T10:40:39;94971.13;;;19.81;70.20
38400;BME280;24180;42.676;23.320;2023-05-11T11:02:17;95001.06;;;19.31;75.22
38400;BME280;24180;42.676;23.320;2023-05-11T11:04:47;94994.78;;;19.81;72.32
38400;BME280;24180;42.676;23.320;2023-05-11T11:07:14;95005.88;;;20.17;67.75
38400;BME280;24180;42.676;23.320;2023-05-11T11:09:54;95004.22;;;20.09;70.37
38400;BME280;24180;42.676;23.320;2023-05-11T11:12:22;94999.53;;;19.71;70.89
38400;BME280;24180;42.676;23.320;2023-05-11T11:17:27;94974.66;;;19.67;72.27
38400;BME280;24180;42.676;23.320;2023-05-11T11:19:56;94992.59;;;19.56;71.42
38400;BME280;24180;42.676;23.320;2023-05-11T11:30:28;94965.50;;;19.28;72.86
38400;BME280;24180;42.676;23.320;2023-05-11T11:38:07;94986.84;;;20.15;69.73
38400;BME280;24180;42.676;23.320;2023-05-11T11:48:40;94984.94;;;18.63;77.69
38400;BME280;24180;42.676;23.320;2023-05-11T11:51:10;94977.91;;;18.64;80.58
38400;BME280;24180;42.676;23.320;2023-05-11T12:01:15;94995.75;;;18.03;83.86
38400;BME280;24180;42.676;23.320;2023-05-11T12:03:42;94953.50;;;18.28;83.09
38400;BME280;24180;42.676;23.320;2023-05-11T12:06:09;94982.97;;;18.51;82.02
38400;BME280;24180;42.676;23.320;2023-05-11T12:08:37;94958.50;;;18.08;83.05
38400;BME280;24180;42.676;23.320;2023-05-11T12:11:03;94989.97;;;18.44;83.69
38400;BME280;24180;42.676;23.320;2023-05-11T12:13:31;94986.31;;;18.23;86.63
38400;BME280;24180;42.676;23.320;2023-05-11T12:18:33;94954.44;;;17.03;92.44
38400;BME280;24180;42.676;23.320;2023-05-11T12:20:58;94977.00;;;17.04;93.27
38400;BME280;24180;42.676;23.320;2023-05-11T12:23:24;94971.09;;;17.24;92.06
38400;BME280;24180;42.676;23.320;2023-05-11T12:26:05;94953.66;;;16.79;95.32
38400;BME280;24180;42.676;23.320;2023-05-11T12:28:32;94961.34;;;17.33;93.00
38400;BME280;24180;42.676;23.320;2023-05-11T12:30:58;94959.09;;;17.45;90.71
38400;BME280;24180;42.676;23.320;2023-05-11T12:33:24;94966.56;;;16.81;96.27
38400;BME280;24180;42.676;23.320;2023-05-11T12:35:53;94962.63;;;16.62;98.10
38400;BME280;24180;42.676;23.320;2023-05-11T12:38:19;94958.06;;;16.56;99.00
38400;BME280;24180;42.676;23.320;2023-05-11T12:40:47;94948.06;;;16.37;99.62
38400;BME280;24180;42.676;23.320;2023-05-11T12:43:20;94927.16;;;16.37;98.14
38400;BME280;24180;42.676;23.320;2023-05-11T12:45:46;94957.47;;;16.46;98.02
38400;BME280;24180;42.676;23.320;2023-05-11T12:48:13;94927.50;;;16.34;98.56
38400;BME280;24180;42.676;23.320;2023-05-11T12:50:43;94944.53;;;15.76;100.00
38400;BME280;24180;42.676;23.320;2023-05-11T12:53:15;94947.56;;;15.33;100.00
38400;BME280;24180;42.676;23.320;2023-05-11T12:55:41;94918.81;;;14.94;100.00
38400;BME280;24180;42.676;23.320;2023-05-11T12:58:12;94930.69;;;14.96;100.00
38400;BME280;24180;42.676;23.320;2023-05-11T13:00:58;94939.31;;;15.05;100.00
38400;BME280;24180;42.676;23.320;2023-05-11T13:03:26;94930.66;;;15.13;100.00
38400;BME280;24180;42.676;23.320;2023-05-11T13:06:02;94928.56;;;15.16;100.00
38400;BME280;24180;42.676;23.320;2023-05-11T13:08:27;94928.09;;;14.88;100.00
38400;BME280;24180;42.676;23.320;2023-05-11T13:10:53;94919.63;;;14.86;100.00
38400;BME280;24180;42.676;23.320;2023-05-11T13:13:28;94918.31;;;14.98;100.00
38400;BME280;24180;42.676;23.320;2023-05-11T13:15:53;94921.50;;;15.25;100.00
38400;BME280;24180;42.676;23.320;2023-05-11T13:18:19;94899.25;;;15.45;100.00
38400;BME280;24180;42.676;23.320;2023-05-11T13:20:44;94903.69;;;15.44;100.00
38400;BME280;24180;42.676;23.320;2023-05-11T13:23:14;94906.97;;;15.30;100.00
38400;BME280;24180;42.676;23.320;2023-05-11T13:28:15;94898.03;;;15.17;100.00
38400;BME280;24180;42.676;23.320;2023-05-11T13:30:41;94908.72;;;15.46;100.00
38400;BME280;24180;42.676;23.320;2023-05-11T13:33:07;94911.81;;;15.50;100.00
38400;BME280;24180;42.676;23.320;2023-05-11T13:35:40;94888.75;;;15.22;100.00
38400;BME280;24180;42.676;23.320;2023-05-11T13:38:06;94888.50;;;14.85;100.00
38400;BME280;24180;42.676;23.320;2023-05-11T13:40:32;94894.75;;;14.76;100.00
38400;BME280;24180;42.676;23.320;2023-05-11T13:42:58;94892.94;;;14.76;100.00
38400;BME280;24180;42.676;23.320;2023-05-11T13:45:24;94910.16;;;15.02;100.00
38400;BME280;24180;42.676;23.320;2023-05-11T13:47:50;94917.66;;;14.96;100.00
38400;BME280;24180;42.676;23.320;2023-05-11T13:50:15;94897.63;;;14.81;100.00
38400;BME280;24180;42.676;23.320;2023-05-11T13:52:41;94903.69;;;14.73;100.00
38400;BME280;24180;42.676;23.320;2023-05-11T13:55:07;94913.94;;;14.83;100.00